Time;durP1;ratioP1;P1;durP2;ratioP2;P2;SDS_P1;SDS_P2;PMS_P1;PMS_P2;Temp;Humidity;BMP_temperature;BMP_pressure;BME280_temperature;BME280_humidity;BME280_pressure;Samples;Min_cycle;Max_cycle;Signal;HPM_P1;HPM_P2
2022/01/06 00:01:47;;;;;;;;;5.75;4.25;;;;;20.14;39.82;101560.13;5064309;28;51238;-52
2022/01/06 00:04:12;;;;;;;;;9.50;5.75;;;;;20.13;39.65;101559.28;5064433;28;51038;-54
2022/01/06 00:06:41;;;;;;;;;7.00;5.75;;;;;20.11;39.76;101558.63;5068704;28;51360;-52
2022/01/06 00:09:07;;;;;;;;;7.00;6.00;;;;;20.12;39.98;101551.22;5066759;28;51498;-51
2022/01/06 00:11:33;;;;;;;;;6.50;6.50;;;;;20.10;39.75;101550.56;5066497;27;51294;-54
2022/01/06 00:14:15;;;;;;;;;8.25;6.50;;;;;20.08;40.09;101545.25;5080604;27;51739;-48
2022/01/06 00:17:03;;;;;;;;;7.75;5.00;;;;;20.09;40.11;101549.72;5062595;28;52408;-51
2022/01/06 00:24:57;;;;;;;;;5.00;5.00;;;;;20.06;39.72;101552.88;5066769;28;51161;-51
2022/01/06 00:27:22;;;;;;;;;7.00;6.75;;;;;20.05;40.19;101553.09;5066463;27;51117;-52
2022/01/06 00:29:47;;;;;;;;;7.25;6.75;;;;;20.04;39.94;101565.13;5071303;28;51124;-53
2022/01/06 00:32:13;;;;;;;;;8.25;6.50;;;;;20.03;40.25;101564.28;5068850;28;51433;-53
2022/01/06 00:34:38;;;;;;;;;13.00;8.00;;;;;20.02;39.95;101568.09;5065607;28;51093;-51
2022/01/06 00:37:03;;;;;;;;;6.00;5.25;;;;;20.01;40.07;101571.91;5056986;28;51052;-49
2022/01/06 00:39:29;;;;;;;;;7.50;6.00;;;;;19.99;39.81;101567.63;5065507;28;51202;-52
2022/01/06 00:41:58;;;;;;;;;6.75;5.00;;;;;19.99;39.85;101564.88;5066432;27;52286;-51
2022/01/06 00:44:23;;;;;;;;;6.25;6.25;;;;;19.98;40.39;101577.78;5066874;28;51799;-53
2022/01/06 00:46:49;;;;;;;;;6.00;6.00;;;;;19.98;40.21;101577.78;5068451;27;51064;-54
2022/01/06 00:49:17;;;;;;;;;6.50;6.25;;;;;19.96;39.77;101577.13;5064200;28;50937;-51
2022/01/06 00:51:42;;;;;;;;;7.50;6.00;;;;;19.96;39.88;101571.63;5065781;27;51157;-52
2022/01/06 00:54:08;;;;;;;;;6.50;6.25;;;;;19.95;40.05;101578.19;5064019;28;51037;-52
2022/01/06 00:56:33;;;;;;;;;6.00;6.00;;;;;19.95;40.28;101571.84;5066702;28;51135;-51
2022/01/06 00:58:58;;;;;;;;;9.50;8.00;;;;;19.94;39.88;101572.91;5067150;28;51104;-51
2022/01/06 01:01:24;;;;;;;;;9.75;7.25;;;;;19.92;39.98;101581.34;5062624;27;51076;-50
2022/01/06 01:03:49;;;;;;;;;5.00;5.00;;;;;19.92;40.20;101586.84;5064658;28;51360;-51
2022/01/06 01:06:14;;;;;;;;;6.00;5.00;;;;;19.91;40.34;101585.16;5070971;28;51225;-52
2022/01/06 01:08:40;;;;;;;;;5.25;5.25;;;;;19.89;40.22;101585.31;5064477;28;51324;-52
2022/01/06 01:11:06;;;;;;;;;7.00;5.50;;;;;19.89;40.08;101584.47;5066838;28;51160;-49
2022/01/06 01:13:37;;;;;;;;;6.00;5.00;;;;;19.88;40.15;101582.78;5064267;28;51767;-51
2022/01/06 01:16:19;;;;;;;;;5.25;4.00;;;;;19.87;39.87;101573.69;5063460;27;51280;-49
2022/01/06 01:18:45;;;;;;;;;7.00;4.50;;;;;19.87;40.37;101575.59;5070492;28;52045;-53
2022/01/06 01:21:11;;;;;;;;;5.50;5.50;;;;;19.85;39.98;101580.44;5066352;27;51074;-51
2022/01/06 01:23:36;;;;;;;;;6.50;5.00;;;;;19.85;40.07;101575.78;5069012;28;53907;-52
2022/01/06 01:26:01;;;;;;;;;6.50;5.25;;;;;19.84;40.10;101574.09;5067939;27;51077;-55
2022/01/06 01:28:33;;;;;;;;;7.00;5.75;;;;;19.84;40.03;101587.84;5069006;27;51250;-52
2022/01/06 01:31:23;;;;;;;;;7.25;6.25;;;;;19.83;40.48;101575.16;5070377;28;51185;-49
2022/01/06 01:33:49;;;;;;;;;7.00;5.00;;;;;19.83;40.03;101582.56;5065897;28;51995;-54
2022/01/06 01:36:15;;;;;;;;;6.75;5.75;;;;;19.81;39.97;101584.66;5070308;28;51306;-52
2022/01/06 01:38:41;;;;;;;;;2.75;2.50;;;;;19.80;40.28;101586.56;5070058;28;51472;-53
2022/01/06 01:41:08;;;;;;;;;5.50;5.00;;;;;19.80;40.22;101585.69;5069332;28;52283;-52
2022/01/06 01:43:34;;;;;;;;;6.25;5.00;;;;;19.78;39.98;101591.38;5064668;27;51018;-50
2022/01/06 01:46:09;;;;;;;;;7.00;7.00;;;;;19.78;40.17;101593.28;5068319;28;51367;-54
2022/01/06 01:48:38;;;;;;;;;6.00;5.25;;;;;19.77;39.97;101588.84;5066065;28;51118;-54
2022/01/06 01:51:03;;;;;;;;;7.25;5.25;;;;;19.77;40.05;101603.44;5069102;28;51423;-50
2022/01/06 01:53:29;;;;;;;;;6.00;5.75;;;;;19.77;40.30;101599.84;5069207;28;51186;-50
2022/01/06 01:55:55;;;;;;;;;8.00;7.00;;;;;19.75;39.97;101599.19;5065999;28;52960;-49
2022/01/06 01:58:21;;;;;;;;;8.00;6.75;;;;;19.75;40.41;101597.28;5067463;28;51138;-50
2022/01/06 02:00:47;;;;;;;;;7.00;7.00;;;;;19.74;40.00;101605.75;5063408;28;51352;-50
2022/01/06 02:03:12;;;;;;;;;4.50;4.50;;;;;19.73;40.18;101613.13;5062297;28;51103;-52
2022/01/06 02:05:37;;;;;;;;;5.00;5.00;;;;;19.72;39.83;101610.59;5067038;28;51076;-51
2022/01/06 02:08:05;;;;;;;;;7.00;5.00;;;;;19.72;40.00;101607.84;5067570;28;50996;-52
2022/01/06 02:10:31;;;;;;;;;5.50;5.50;;;;;19.71;39.93;101608.91;5068773;28;51096;-47
2022/01/06 02:12:58;;;;;;;;;6.50;4.50;;;;;19.71;40.46;101611.66;5070170;28;51567;-51
2022/01/06 02:15:24;;;;;;;;;4.00;3.75;;;;;19.70;40.26;101612.69;5064422;27;51369;-48
2022/01/06 02:17:50;;;;;;;;;6.75;6.25;;;;;19.70;40.18;101612.69;5067357;28;51196;-51
2022/01/06 02:20:18;;;;;;;;;6.25;5.75;;;;;19.69;40.35;101610.97;5063508;28;51186;-53
2022/01/06 02:22:45;;;;;;;;;5.25;5.00;;;;;19.68;40.25;101609.28;5071530;28;52045;-50
2022/01/06 02:25:19;;;;;;;;;5.50;4.75;;;;;19.68;40.06;101609.28;5065332;28;51059;-53
2022/01/06 02:27:48;;;;;;;;;5.50;4.00;;;;;19.66;40.25;101603.97;5073384;27;51193;-52
2022/01/06 02:30:14;;;;;;;;;5.50;5.50;;;;;19.66;40.17;101605.88;5061508;28;51268;-53
2022/01/06 02:32:39;;;;;;;;;4.75;4.50;;;;;19.64;40.27;101606.06;5067582;28;51215;-52
2022/01/06 02:35:11;;;;;;;;;6.00;5.50;;;;;19.64;39.98;101619.81;5066692;28;51045;-48
2022/01/06 02:37:36;;;;;;;;;6.75;6.25;;;;;19.64;40.03;101611.56;5067508;28;51007;-51
2022/01/06 02:40:06;;;;;;;;;7.00;6.00;;;;;19.63;40.09;101609.88;5068371;27;51581;-50
2022/01/06 02:42:32;;;;;;;;;5.00;4.50;;;;;19.62;40.30;101613.69;5066172;27;51895;-48
2022/01/06 02:44:57;;;;;;;;;7.00;5.50;;;;;19.61;40.04;101611.97;5070119;28;51311;-54
2022/01/06 02:47:22;;;;;;;;;6.25;5.00;;;;;19.62;40.43;101604.59;5067083;28;51139;-50
2022/01/06 02:49:48;;;;;;;;;7.75;5.00;;;;;19.60;39.82;101605.63;5062100;28;51277;-49
2022/01/06 02:52:13;;;;;;;;;5.75;5.00;;;;;19.59;40.21;101606.69;5058955;28;51874;-50
2022/01/06 02:54:38;;;;;;;;;5.50;3.00;;;;;19.61;40.44;101614.72;5072871;28;51570;-52
2022/01/06 02:57:04;;;;;;;;;5.50;5.50;;;;;19.59;40.25;101617.69;5065712;28;50961;-48
2022/01/06 02:59:29;;;;;;;;;7.25;6.00;;;;;19.59;40.17;101614.94;5070425;28;51612;-51
2022/01/06 03:01:55;;;;;;;;;6.00;6.00;;;;;19.59;40.32;101614.06;5064035;28;52053;-53
2022/01/06 03:04:23;;;;;;;;;5.25;4.00;;;;;19.58;40.32;101637.09;5066029;28;51107;-52
2022/01/06 03:06:48;;;;;;;;;6.50;4.75;;;;;19.57;39.99;101627.16;5071261;28;51207;-53
2022/01/06 03:09:14;;;;;;;;;5.00;5.00;;;;;19.57;40.47;101636.25;5066619;28;51116;-50
2022/01/06 03:11:42;;;;;;;;;8.00;5.00;;;;;19.56;40.41;101634.53;5066236;28;53026;-53
2022/01/06 03:14:08;;;;;;;;;5.50;4.75;;;;;19.56;40.61;101633.69;5024355;28;1251915;-51
2022/01/06 03:16:34;;;;;;;;;6.75;4.75;;;;;19.55;40.18;101634.72;5071597;28;51111;-51
2022/01/06 03:18:59;;;;;;;;;7.25;6.00;;;;;19.55;40.50;101634.72;5072875;28;52309;-50
2022/01/06 03:21:24;;;;;;;;;8.00;6.25;;;;;19.53;40.33;101640.41;5072601;27;51627;-52
2022/01/06 03:23:50;;;;;;;;;5.00;3.50;;;;;19.53;40.20;101642.31;5071023;28;51220;-54
2022/01/06 03:26:15;;;;;;;;;4.25;4.00;;;;;19.53;40.18;101642.31;5077077;27;51334;-52
2022/01/06 03:28:40;;;;;;;;;7.00;5.25;;;;;19.52;40.37;101655.19;5078178;27;52517;-50
2022/01/06 03:31:06;;;;;;;;;5.00;5.00;;;;;19.52;40.20;101654.34;5064289;28;51448;-54
2022/01/06 03:33:31;;;;;;;;;6.25;4.00;;;;;19.51;40.36;101645.25;5074279;27;50937;-53
2022/01/06 03:35:56;;;;;;;;;7.00;6.25;;;;;19.50;40.29;101643.56;5065193;28;51252;-51
2022/01/06 03:38:22;;;;;;;;;4.50;4.50;;;;;19.50;40.37;101645.47;5068950;28;51085;-52
2022/01/06 03:40:47;;;;;;;;;3.75;3.50;;;;;19.49;40.08;101649.25;5074969;27;51814;-49
2022/01/06 03:43:13;;;;;;;;;3.00;3.00;;;;;19.51;40.26;101647.16;5065693;28;51141;-53
2022/01/06 03:45:38;;;;;;;;;4.00;3.50;;;;;19.49;40.47;101647.34;5068173;28;51185;-49
2022/01/06 03:48:04;;;;;;;;;5.00;5.00;;;;;19.49;40.17;101652.00;5067946;28;51218;-49
2022/01/06 03:50:30;;;;;;;;;5.25;5.25;;;;;19.48;40.38;101645.63;5066907;28;51851;-53
2022/01/06 03:52:56;;;;;;;;;6.50;6.00;;;;;19.48;40.34;101653.03;5073986;27;51130;-53
2022/01/06 03:55:22;;;;;;;;;6.75;5.00;;;;;19.47;40.51;101654.91;5065667;27;51193;-50
2022/01/06 03:57:48;;;;;;;;;5.75;5.75;;;;;19.46;40.23;101644.97;5067613;28;50899;-53
2022/01/06 04:00:17;;;;;;;;;5.00;3.00;;;;;19.46;40.35;101655.13;5060731;28;51058;-49
2022/01/06 04:02:44;;;;;;;;;7.25;5.50;;;;;19.46;40.39;101666.13;5062901;28;51352;-52
2022/01/06 04:05:10;;;;;;;;;4.00;4.00;;;;;19.45;40.32;101664.41;5067767;28;51152;-51
2022/01/06 04:07:36;;;;;;;;;6.00;6.00;;;;;19.44;40.40;101658.06;5068097;28;51247;-48
2022/01/06 04:10:03;;;;;;;;;4.75;4.25;;;;;19.44;40.26;101657.22;5063161;27;51053;-50
2022/01/06 04:12:28;;;;;;;;;5.00;4.75;;;;;19.43;40.21;101658.28;5057402;28;51400;-49
2022/01/06 04:14:54;;;;;;;;;4.25;3.25;;;;;19.43;39.95;101659.13;5057901;28;51144;-53
2022/01/06 04:17:19;;;;;;;;;7.50;4.25;;;;;19.42;40.36;101662.91;5069407;28;50927;-53
2022/01/06 04:19:44;;;;;;;;;4.00;3.00;;;;;19.42;40.24;101653.81;5065012;28;51959;-52
2022/01/06 04:22:10;;;;;;;;;3.00;3.00;;;;;19.41;40.38;101658.47;5060752;28;51352;-49
2022/01/06 04:24:35;;;;;;;;;5.00;4.75;;;;;19.41;40.61;101654.88;5066601;28;50993;-48
2022/01/06 04:27:02;;;;;;;;;7.25;5.75;;;;;19.41;40.45;101652.13;5073771;27;51099;-51
2022/01/06 04:29:27;;;;;;;;;4.25;4.25;;;;;19.40;40.20;101661.41;5064780;28;51092;-53
2022/01/06 04:31:53;;;;;;;;;4.00;4.00;;;;;19.40;40.38;101665.00;5069148;28;51094;-50
2022/01/06 04:34:18;;;;;;;;;5.75;5.00;;;;;19.39;40.32;101656.97;5071134;28;51091;-48
2022/01/06 04:36:49;;;;;;;;;3.75;3.75;;;;;19.40;40.43;101666.91;5060852;28;52242;-54
2022/01/06 04:39:15;;;;;;;;;5.00;4.50;;;;;19.38;40.43;101658.00;5063861;28;51202;-48
2022/01/06 04:41:40;;;;;;;;;5.25;3.00;;;;;19.39;40.43;101659.72;5060616;28;51370;-52
2022/01/06 04:44:06;;;;;;;;;4.00;4.00;;;;;19.37;40.46;101654.41;5070187;28;50935;-51
2022/01/06 04:46:31;;;;;;;;;6.50;5.25;;;;;19.37;40.24;101656.28;5067432;28;51464;-51
2022/01/06 04:48:56;;;;;;;;;4.25;4.00;;;;;19.37;40.27;101654.41;5063812;28;51213;-51
2022/01/06 04:51:22;;;;;;;;;5.00;4.00;;;;;19.36;40.21;101657.34;5065539;28;51194;-50
2022/01/06 04:53:47;;;;;;;;;4.00;3.00;;;;;19.36;40.36;101663.69;5064645;28;51059;-51
2022/01/06 04:56:12;;;;;;;;;4.75;4.50;;;;;19.35;40.41;101664.72;5067027;28;51097;-49
2022/01/06 04:58:38;;;;;;;;;5.75;4.00;;;;;19.34;40.34;101665.78;5062811;28;51833;-53
2022/01/06 05:01:03;;;;;;;;;4.75;3.50;;;;;19.34;40.46;101665.78;5065207;28;51217;-53
2022/01/06 05:03:29;;;;;;;;;5.50;5.25;;;;;19.34;40.72;101671.28;5070410;28;51250;-53
2022/01/06 05:05:54;;;;;;;;;4.00;3.00;;;;;19.33;40.23;101667.69;5067084;28;51215;-52
2022/01/06 05:08:20;;;;;;;;;5.00;4.75;;;;;19.33;40.24;101673.19;5067901;28;51956;-51
2022/01/06 05:10:45;;;;;;;;;3.75;3.75;;;;;19.32;40.54;101676.97;5063617;28;51285;-51
2022/01/06 05:13:10;;;;;;;;;3.75;3.75;;;;;19.32;40.55;101679.72;5065576;28;51280;-52
2022/01/06 05:15:36;;;;;;;;;8.75;3.00;;;;;19.32;40.46;101679.72;5069247;28;51284;-51
2022/01/06 05:18:01;;;;;;;;;3.50;3.50;;;;;19.31;40.35;101686.25;5063004;28;51857;-50
2022/01/06 05:20:27;;;;;;;;;4.00;4.00;;;;;19.31;40.29;101688.16;5070616;28;52158;-50
2022/01/06 05:22:55;;;;;;;;;5.00;3.75;;;;;19.30;40.23;101695.56;5064034;28;51246;-51
2022/01/06 05:25:25;;;;;;;;;4.00;4.00;;;;;19.30;40.57;101684.56;5060163;28;51120;-53
2022/01/06 05:27:51;;;;;;;;;5.00;3.00;;;;;19.30;40.41;101683.72;5066490;27;52664;-50
2022/01/06 05:30:16;;;;;;;;;3.50;2.75;;;;;19.30;40.43;101689.22;5062267;28;52954;-49
2022/01/06 05:32:41;;;;;;;;;4.75;4.75;;;;;19.29;40.37;101693.84;5056599;28;51056;-51
2022/01/06 05:35:07;;;;;;;;;5.50;3.25;;;;;19.28;40.41;101686.66;5062687;28;51076;-52
2022/01/06 05:37:33;;;;;;;;;3.00;3.00;;;;;19.28;40.28;101692.16;5069394;28;51802;-51
2022/01/06 05:39:58;;;;;;;;;3.25;3.25;;;;;19.28;40.46;101702.28;5064575;28;51062;-53
2022/01/06 05:42:23;;;;;;;;;4.50;3.75;;;;;19.28;40.47;101702.28;5066600;28;51132;-48
2022/01/06 05:44:49;;;;;;;;;4.00;3.50;;;;;19.26;40.62;101702.47;5063723;28;51073;-51
2022/01/06 05:47:14;;;;;;;;;4.00;3.00;;;;;19.27;40.60;101701.41;5067933;28;52655;-52
2022/01/06 05:49:39;;;;;;;;;3.50;3.00;;;;;19.27;40.21;101706.06;5063246;28;51128;-53
2022/01/06 05:52:05;;;;;;;;;3.25;3.25;;;;;19.27;40.39;101706.06;5059906;28;51462;-52
2022/01/06 05:54:31;;;;;;;;;6.75;3.25;;;;;19.27;40.50;101703.31;5066286;28;51001;-52
2022/01/06 05:56:56;;;;;;;;;7.25;4.25;;;;;19.25;40.51;101705.41;5066363;28;50996;-53
2022/01/06 05:59:21;;;;;;;;;3.00;3.00;;;;;19.25;40.33;101697.16;5059425;27;51081;-48
2022/01/06 06:01:47;;;;;;;;;2.75;2.75;;;;;19.25;40.47;101699.91;5073372;28;51098;-52
2022/01/06 06:04:13;;;;;;;;;3.75;3.75;;;;;19.23;40.24;101694.63;5063801;28;51243;-52
2022/01/06 06:06:38;;;;;;;;;3.75;3.50;;;;;19.24;40.47;101717.44;5066016;27;52214;-52
2022/01/06 06:09:04;;;;;;;;;8.25;7.00;;;;;19.23;39.38;101724.84;5067625;27;51343;-54
2022/01/06 06:11:30;;;;;;;;;11.50;9.25;;;;;19.20;37.97;101724.38;5067410;28;51102;-49
2022/01/06 06:13:55;;;;;;;;;9.25;8.75;;;;;19.15;37.52;101737.81;5069914;27;51030;-53
2022/01/06 06:16:20;;;;;;;;;10.75;9.00;;;;;19.10;36.78;101746.66;5065055;28;51830;-50
2022/01/06 06:18:46;;;;;;;;;13.00;9.25;;;;;19.03;36.24;101742.94;5067681;28;50907;-51
2022/01/06 06:21:11;;;;;;;;;11.75;9.75;;;;;18.97;36.07;101747.31;5069075;28;51357;-52
2022/01/06 06:23:36;;;;;;;;;11.75;11.25;;;;;18.90;35.87;101746.38;5069435;28;51405;-50
2022/01/06 06:26:02;;;;;;;;;7.50;7.25;;;;;18.83;35.57;101739.94;5072227;27;51938;-47
2022/01/06 06:28:28;;;;;;;;;11.50;10.50;;;;;18.77;35.67;101748.94;5074548;27;51116;-50
2022/01/06 06:30:53;;;;;;;;;14.00;11.25;;;;;18.71;35.34;101745.03;5068520;28;51116;-50
2022/01/06 06:33:19;;;;;;;;;12.25;9.25;;;;;18.65;35.37;101742.19;5072459;27;51102;-53
2022/01/06 06:35:44;;;;;;;;;16.50;11.50;;;;;18.60;35.27;101755.59;5068387;27;51110;-51
2022/01/06 06:38:09;;;;;;;;;12.75;10.25;;;;;18.53;35.38;101757.38;5058861;28;51238;-51
2022/01/06 06:40:35;;;;;;;;;12.75;11.50;;;;;18.45;35.55;101752.84;5058927;28;51904;-53
2022/01/06 06:43:00;;;;;;;;;10.50;10.50;;;;;18.40;35.81;101752.56;5062098;28;51085;-50
2022/01/06 06:45:26;;;;;;;;;12.25;9.75;;;;;18.42;36.02;101758.69;5058754;28;51128;-49
2022/01/06 06:47:51;;;;;;;;;8.25;6.75;;;;;18.45;36.55;101761.09;5072966;27;51273;-50
2022/01/06 06:50:17;;;;;;;;;8.50;7.00;;;;;18.51;36.73;101759.47;5072101;28;50983;-48
2022/01/06 06:52:46;;;;;;;;;6.50;6.50;;;;;18.56;37.01;101751.53;5064195;28;51294;-50
2022/01/06 06:55:12;;;;;;;;;8.50;6.50;;;;;18.65;37.05;101747.69;5061356;28;51143;-47
2022/01/06 06:57:38;;;;;;;;;7.50;6.00;;;;;18.72;37.38;101754.13;5064947;28;51231;-53
2022/01/06 07:00:06;;;;;;;;;6.25;4.75;;;;;18.79;37.55;101760.56;5058138;28;51280;-49
2022/01/06 07:02:32;;;;;;;;;7.75;5.25;;;;;18.87;38.14;101760.50;5067175;28;51029;-48
2022/01/06 07:04:57;;;;;;;;;7.25;5.50;;;;;18.95;38.13;101762.25;5060019;27;51155;-51
2022/01/06 07:07:23;;;;;;;;;5.25;4.25;;;;;19.01;38.32;101762.38;5066545;28;51275;-50
2022/01/06 07:09:50;;;;;;;;;4.00;4.00;;;;;19.10;38.84;101762.28;5059119;28;51201;-52
2022/01/06 07:12:15;;;;;;;;;6.25;4.75;;;;;19.15;38.76;101760.63;5062086;28;51550;-53
2022/01/06 07:14:41;;;;;;;;;5.25;5.25;;;;;19.24;38.77;101769.63;5065982;28;52200;-50
2022/01/06 07:17:06;;;;;;;;;9.25;7.00;;;;;19.31;38.78;101765.94;5063334;28;51070;-51
2022/01/06 07:19:31;;;;;;;;;4.25;4.00;;;;;19.38;39.12;101768.75;5062099;28;51967;-54
2022/01/06 07:21:57;;;;;;;;;4.25;3.75;;;;;19.46;39.21;101765.03;5066020;28;51270;-53
2022/01/06 07:24:22;;;;;;;;;3.50;3.50;;;;;19.53;38.97;101766.81;5073361;28;51905;-48
2022/01/06 07:26:47;;;;;;;;;11.00;5.25;;;;;19.60;39.73;101775.19;5062096;27;51160;-52
2022/01/06 07:29:13;;;;;;;;;6.50;5.00;;;;;19.67;39.48;101773.34;5081674;27;51121;-50
2022/01/06 07:31:38;;;;;;;;;5.50;4.00;;;;;19.74;39.30;101767.94;5061379;28;51342;-51
2022/01/06 07:34:03;;;;;;;;;4.25;4.25;;;;;19.80;39.86;101770.75;5061584;28;51932;-52
2022/01/06 07:36:29;;;;;;;;;10.00;6.75;;;;;19.85;39.93;101783.91;5061956;28;51160;-50
2022/01/06 07:38:54;;;;;;;;;5.50;5.50;;;;;19.86;39.66;101778.22;5054192;28;51551;-50
2022/01/06 07:41:19;;;;;;;;;9.00;7.00;;;;;19.88;39.65;101787.09;5065938;28;51897;-50
2022/01/06 07:43:45;;;;;;;;;6.00;5.00;;;;;19.90;39.47;101784.16;5059797;28;51549;-50
2022/01/06 07:46:10;;;;;;;;;6.50;5.00;;;;;19.89;39.46;101788.81;5062070;27;51111;-47
2022/01/06 07:48:55;;;;;;;;;10.25;4.50;;;;;19.92;39.49;101795.00;5063440;27;51063;-48
2022/01/06 07:51:24;;;;;;;;;6.50;5.00;;;;;19.94;39.31;101787.38;5059575;28;51034;-50
2022/01/06 07:53:50;;;;;;;;;6.25;5.00;;;;;19.97;39.27;101798.00;5060705;28;51553;-46
2022/01/06 07:56:15;;;;;;;;;5.50;5.50;;;;;20.02;39.29;101795.50;5058893;28;51226;-51
2022/01/06 07:58:41;;;;;;;;;5.00;4.75;;;;;20.10;39.30;101800.84;5068347;28;51459;-50
2022/01/06 08:01:06;;;;;;;;;8.75;6.25;;;;;20.17;39.19;101804.53;5072812;27;51319;-50
2022/01/06 08:03:31;;;;;;;;;8.00;6.50;;;;;20.17;38.78;101799.88;5068307;28;52597;-49
2022/01/06 08:05:57;;;;;;;;;6.00;5.00;;;;;20.16;39.18;101803.69;5075322;28;51144;-47
2022/01/06 08:08:22;;;;;;;;;8.00;5.00;;;;;20.12;38.97;101801.53;5076952;28;50956;-50
2022/01/06 08:10:47;;;;;;;;;9.00;7.50;;;;;20.06;38.79;101794.91;5076887;27;50944;-51
2022/01/06 08:13:13;;;;;;;;;7.50;6.25;;;;;20.03;38.79;101802.72;5076493;28;51059;-48
2022/01/06 08:15:38;;;;;;;;;9.00;8.25;;;;;19.97;38.87;101795.25;5076664;27;51052;-48
2022/01/06 08:18:04;;;;;;;;;7.75;6.00;;;;;19.92;38.78;101793.09;5076313;28;51134;-51
2022/01/06 08:20:29;;;;;;;;;9.00;6.00;;;;;19.88;38.85;101789.00;5076668;27;51204;-52
2022/01/06 08:22:54;;;;;;;;;7.50;7.50;;;;;19.83;39.36;101802.50;5076271;27;51159;-47
2022/01/06 08:25:20;;;;;;;;;9.50;8.75;;;;;19.78;39.19;101803.06;5076169;28;51126;-51
2022/01/06 08:27:45;;;;;;;;;9.50;7.75;;;;;19.75;39.66;101799.88;5092768;27;51078;-50
2022/01/06 08:30:11;;;;;;;;;7.75;7.25;;;;;19.71;39.31;101804.06;5097121;27;51190;-48
2022/01/06 08:32:36;;;;;;;;;8.25;7.75;;;;;19.65;39.57;101802.06;5096021;27;52041;-50
2022/01/06 08:35:03;;;;;;;;;8.50;8.00;;;;;19.60;39.54;101808.16;5096820;27;51024;-53
2022/01/06 08:37:28;;;;;;;;;9.00;7.25;;;;;19.56;39.37;101804.09;5097124;27;51206;-50
2022/01/06 08:39:53;;;;;;;;;8.00;8.00;;;;;19.51;39.31;101815.63;5096871;27;51030;-51
2022/01/06 08:42:19;;;;;;;;;11.00;8.00;;;;;19.47;39.37;101808.81;5096212;27;52029;-50
2022/01/06 08:44:44;;;;;;;;;8.00;7.00;;;;;19.44;39.54;101808.34;5096578;27;51015;-51
2022/01/06 08:47:10;;;;;;;;;3.75;3.00;;;;;19.41;39.63;101815.09;5096364;27;51124;-47
2022/01/06 08:49:36;;;;;;;;;8.50;7.75;;;;;19.38;39.40;101812.69;5096348;27;51077;-50
2022/01/06 08:52:02;;;;;;;;;8.50;6.50;;;;;19.36;39.56;101822.19;5095969;27;51032;-53
2022/01/06 08:54:28;;;;;;;;;7.50;7.50;;;;;19.31;39.54;101818.13;5095748;27;51085;-48
2022/01/06 08:56:53;;;;;;;;;7.50;7.00;;;;;19.30;39.28;101821.06;5094729;27;51330;-48
2022/01/06 08:59:18;;;;;;;;;9.00;9.00;;;;;19.26;39.36;101825.22;5096376;27;50942;-51
2022/01/06 09:01:44;;;;;;;;;14.50;9.00;;;;;19.22;39.37;101822.03;5096117;27;50933;-48
2022/01/06 09:04:09;;;;;;;;;14.00;13.25;;;;;19.21;39.79;101819.47;5095934;27;51043;-53
2022/01/06 09:06:35;;;;;;;;;11.75;10.75;;;;;19.18;39.31;101822.59;5095758;27;51089;-50
2022/01/06 09:09:01;;;;;;;;;11.25;10.50;;;;;19.14;39.64;101819.38;5096062;27;51186;-50
2022/01/06 09:11:26;;;;;;;;;8.25;7.75;;;;;19.12;39.63;101828.84;5095902;27;51009;-53
2022/01/06 09:13:51;;;;;;;;;12.00;10.50;;;;;19.10;39.82;101829.03;5096321;27;50960;-52
2022/01/06 09:16:16;;;;;;;;;13.00;7.75;;;;;19.09;39.69;101826.47;5096036;27;51086;-51
2022/01/06 09:18:42;;;;;;;;;9.50;8.25;;;;;19.06;39.67;101824.94;5096003;27;51283;-52
2022/01/06 09:21:09;;;;;;;;;11.00;7.50;;;;;19.03;39.62;101828.06;5095892;27;51762;-48
2022/01/06 09:23:35;;;;;;;;;9.25;7.00;;;;;19.01;39.81;101832.91;5095957;27;51080;-51
2022/01/06 09:26:00;;;;;;;;;11.75;8.00;;;;;18.99;39.79;101829.50;5094283;27;51043;-51
2022/01/06 09:28:26;;;;;;;;;9.00;7.75;;;;;18.98;39.83;101831.41;5064750;27;51161;-50
2022/01/06 09:30:52;;;;;;;;;9.25;9.25;;;;;18.96;39.77;101832.59;5054583;28;51850;-50
2022/01/06 09:33:20;;;;;;;;;8.50;7.00;;;;;18.93;39.89;101831.09;5054859;28;51077;-53
2022/01/06 09:35:46;;;;;;;;;10.75;8.50;;;;;18.93;39.84;101833.84;5055108;28;50989;-50
2022/01/06 09:38:13;;;;;;;;;7.75;5.75;;;;;18.91;39.95;101833.19;5055122;28;51073;-53
2022/01/06 09:40:41;;;;;;;;;9.75;8.75;;;;;18.90;39.52;101842.47;5055130;28;52712;-51
2022/01/06 09:43:07;;;;;;;;;8.50;7.75;;;;;18.89;39.67;101850.91;5055988;28;51081;-52
2022/01/06 09:45:34;;;;;;;;;8.00;7.25;;;;;18.87;39.72;101853.84;5058729;28;51017;-51
2022/01/06 09:48:00;;;;;;;;;12.50;10.25;;;;;18.85;39.74;101849.53;5058878;28;51094;-50
2022/01/06 09:50:26;;;;;;;;;13.25;11.00;;;;;18.84;39.51;101856.06;5058230;28;50953;-51
2022/01/06 09:52:52;;;;;;;;;10.25;8.00;;;;;18.84;39.78;101856.06;5058540;28;50969;-50
2022/01/06 09:55:17;;;;;;;;;13.50;9.25;;;;;18.80;39.66;101855.59;5058155;28;51157;-52
2022/01/06 09:57:59;;;;;;;;;13.25;8.50;;;;;18.79;39.59;101862.16;5074018;28;51133;-49
2022/01/06 10:00:29;;;;;;;;;9.00;8.00;;;;;18.79;39.52;101866.78;5058401;28;50980;-50
2022/01/06 10:02:58;;;;;;;;;15.25;8.00;;;;;18.77;39.78;101861.47;5058231;28;51012;-51
2022/01/06 10:05:25;;;;;;;;;10.25;7.00;;;;;18.75;39.78;101860.78;5066212;28;51124;-47
2022/01/06 10:07:53;;;;;;;;;12.00;8.25;;;;;18.74;39.40;101861.84;5057830;28;51268;-51
2022/01/06 10:10:24;;;;;;;;;14.75;9.75;;;;;18.74;38.85;101862.69;5065638;28;51852;-47
2022/01/06 10:13:00;;;;;;;;;6.50;6.00;;;;;18.79;38.57;101862.16;5062880;28;51229;-50
2022/01/06 10:15:28;;;;;;;;;8.50;7.00;;;;;18.89;38.65;101862.72;5066255;28;51188;-49
2022/01/06 10:17:55;;;;;;;;;5.50;5.25;;;;;18.99;38.83;101860.56;5067070;27;51135;-50
2022/01/06 10:20:26;;;;;;;;;5.50;5.25;;;;;19.11;38.73;101857.34;5061497;27;51242;-49
2022/01/06 10:22:56;;;;;;;;;8.25;8.25;;;;;19.24;38.50;101855.63;5058213;27;51397;-50
2022/01/06 10:25:25;;;;;;;;;5.50;5.50;;;;;19.37;38.55;101848.63;5056482;27;51307;-50
2022/01/06 10:27:56;;;;;;;;;8.00;6.00;;;;;19.48;38.61;101851.72;5058088;27;51282;-49
2022/01/06 10:30:22;;;;;;;;;9.00;5.00;;;;;19.60;38.40;101855.75;5060776;27;51868;-50
2022/01/06 10:32:47;;;;;;;;;3.75;3.75;;;;;19.73;38.58;101856.94;5068722;27;51099;-48
2022/01/06 10:35:17;;;;;;;;;3.25;3.25;;;;;19.82;38.57;101847.53;5059260;28;51292;-50
2022/01/06 10:37:45;;;;;;;;;6.50;4.25;;;;;19.93;38.46;101848.94;5056886;27;51148;-51
2022/01/06 10:40:16;;;;;;;;;5.00;4.00;;;;;20.02;38.48;101856.88;5059157;27;51211;-52
2022/01/06 10:42:46;;;;;;;;;4.00;3.25;;;;;20.14;38.31;101859.94;5071005;27;51220;-50
2022/01/06 10:45:18;;;;;;;;;6.25;4.75;;;;;20.23;38.19;101863.44;5058007;27;51325;-47
2022/01/06 10:47:49;;;;;;;;;5.75;4.25;;;;;20.31;38.44;101847.63;5070153;28;51260;-49
2022/01/06 10:50:17;;;;;;;;;6.00;5.75;;;;;20.40;38.05;101846.44;5067835;27;51943;-50
2022/01/06 10:52:49;;;;;;;;;3.50;3.50;;;;;20.49;38.18;101840.84;5061388;27;51283;-47
2022/01/06 10:55:27;;;;;;;;;4.75;4.00;;;;;20.58;38.42;101837.75;5059110;27;51143;-52
2022/01/06 10:57:58;;;;;;;;;4.25;4.25;;;;;20.67;37.90;101842.06;5056633;28;52128;-50
2022/01/06 11:00:33;;;;;;;;;4.25;3.50;;;;;20.75;38.27;101833.66;5058891;27;51904;-49
2022/01/06 11:03:22;;;;;;;;;1.75;1.75;;;;;20.86;38.10;101834.16;5056467;28;51109;-50
2022/01/06 11:05:56;;;;;;;;;2.25;2.25;;;;;20.95;37.90;101822.78;5060886;28;51219;-49
2022/01/06 11:08:28;;;;;;;;;3.25;3.25;;;;;21.06;38.17;101829.63;5061258;27;51807;-52
2022/01/06 11:13:35;;;;;;;;;5.50;3.50;;;;;21.23;37.67;101821.88;5060632;27;51124;-49
2022/01/06 11:16:02;;;;;;;;;5.00;2.50;;;;;21.30;38.03;101815.38;5058928;27;51457;-47
2022/01/06 11:18:28;;;;;;;;;3.75;3.75;;;;;21.38;37.57;101808.00;5060378;27;51911;-51
2022/01/06 11:21:09;;;;;;;;;3.00;3.00;;;;;21.44;37.96;101808.00;5064461;28;51299;-50
2022/01/06 11:23:35;;;;;;;;;2.00;2.00;;;;;21.51;37.96;101805.28;5058839;28;51297;-51
2022/01/06 11:26:06;;;;;;;;;3.00;3.00;;;;;21.58;37.59;101808.94;5059319;27;51048;-48
2022/01/06 11:28:32;;;;;;;;;3.25;1.50;;;;;21.63;37.82;101811.91;5068639;27;51144;-51
2022/01/06 11:31:31;;;;;;;;;3.50;3.50;;;;;21.69;37.74;101804.72;5068164;28;54086;-51